KHVS/HVS METAR and TAF weather

Enter ICAO airport designator
Station Type Date Time Source
KHVS METAR 2019/03/21 03:15 UTC NOAA

KHVS 210315Z AUTO 01005KT 5SM BR OVC005 06/06 A3007 RMK AO2


Station Type Date Time Source
KHVS Decoded METAR 2019/03/21 03:15 UTC NOAA

Station name not available
Mar 20, 2019 - 11:15 PM EDT / 2019.03.21 0315 UTC
Wind: from the N (010 degrees) at 6 MPH (5 KT):0
Visibility: 5 mile(s):0
Sky conditions: overcast
Weather: mist
Temperature: 42 F (6 C)
Dew Point: 42 F (6 C)
Relative Humidity: 100%
Pressure (altimeter): 30.07 in. Hg (1018 hPa)
ob: KHVS 210315Z AUTO 01005KT 5SM BR OVC005 06/06 A3007 RMK AO2
cycle: 3

Station Type Date Time Source
KHVS TAF UTC NOAA

Error!

Example: see airport list